Airfield :
LOGIN :

Register | Disclaimer

   EN    FR    IT 

 










Legend :    VFR   Marginal VFR   IFR   Intensive IFR   Very Intensive IFR
Visi :
Ceiling :
>= 8 km
>= 3000ft
5 to 8 km
1000 to 3000 ft
1500m to 5 km
500 to 1000 ft
800 to 1500m
200 to 500 ft
< 800m
< 200 ft
Symbols :   Thunderstorms  Fog  Heavy snow  Heavy precipitations  Wind > 20 kt
SIGMETs :     Misc.  Thunderstorms  Icing  Turbulence  Mountain Waves  Volcanic Ashes






- Airport Elevation : 257 ft
- IATA code : MAN


EGCC - Manchester

CURRENT METAR :
  • 210920Z 27005KT 240V310 9999 FEW026 SCT032 16/10 Q1011

EXPIRED METARs :
  • 210850Z 24006KT 220V280 9999 FEW020 SCT024 16/09 Q1011
  • 210820Z 29005KT 240V320 9999 SCT024 15/10 Q1011
  • 210750Z AUTO 26008KT 9999 SCT021 SCT026 15/10 Q1011
  • 210720Z AUTO 29007KT 9999 FEW021 15/10 Q1011
  • 210650Z AUTO 29007KT 9999 NCD 14/10 Q1010
  • 210620Z AUTO 26004KT 220V290 9999 NCD 13/10 Q1010
  • 210550Z AUTO 24003KT 210V270 9999 FEW024 12/10 Q1009
  • 210520Z AUTO 24003KT 200V270 9999 SCT023 12/10 Q1009

TAF TAF EGCC
Valid from the 21 at 06:00 until the 22 at 12:00 UTC


210458Z 2106/2212 27005KT 9999 SCT025
BECMG 2121/2124 18010KT
PROB40
TEMPO 2202/2209 6000 -RADZ BKN010
BECMG 2209/2212 24010KT
ATIS : +44 161 499 2324



MET'MAP, your aeronautical weather chart ! - Copyright ORBIFLY December 2007 - Disclaimer

ORBIFLY MET'MAP TEAM :

Programming & Development : Alexandra Zaïnal
Original concept : Baudouin d'Aumeries
Technical & hardware support : Manuel Goepfert
Assistance : Marc-Olivier Méhu




SOURCES & CREDITS :

   NOAA